sensor_id;sensor_type;location;lat;lon;timestamp;P1;durP1;ratioP1;P2;durP2;ratioP2
20844;SDS011;10583;49.084;8.646;2023-04-30T00:02:00;3.20;;;3.20;;
20844;SDS011;10583;49.084;8.646;2023-04-30T00:04:27;2.70;;;2.70;;
20844;SDS011;10583;49.084;8.646;2023-04-30T00:06:54;2.87;;;2.87;;
20844;SDS011;10583;49.084;8.646;2023-04-30T00:09:20;2.77;;;2.77;;
20844;SDS011;10583;49.084;8.646;2023-04-30T00:11:47;3.10;;;3.10;;
20844;SDS011;10583;49.084;8.646;2023-04-30T00:14:14;2.60;;;2.60;;
20844;SDS011;10583;49.084;8.646;2023-04-30T00:16:42;3.03;;;3.03;;
20844;SDS011;10583;49.084;8.646;2023-04-30T00:19:09;2.90;;;2.90;;
20844;SDS011;10583;49.084;8.646;2023-04-30T00:21:36;2.97;;;2.97;;
20844;SDS011;10583;49.084;8.646;2023-04-30T00:24:02;2.67;;;2.67;;
20844;SDS011;10583;49.084;8.646;2023-04-30T00:26:30;3.20;;;3.20;;
20844;SDS011;10583;49.084;8.646;2023-04-30T00:28:56;3.30;;;3.30;;
20844;SDS011;10583;49.084;8.646;2023-04-30T00:31:23;3.20;;;3.20;;
20844;SDS011;10583;49.084;8.646;2023-04-30T00:33:51;2.83;;;2.83;;
20844;SDS011;10583;49.084;8.646;2023-04-30T00:36:18;3.13;;;3.13;;
20844;SDS011;10583;49.084;8.646;2023-04-30T00:38:45;2.83;;;2.83;;
20844;SDS011;10583;49.084;8.646;2023-04-30T00:41:11;3.00;;;3.00;;
20844;SDS011;10583;49.084;8.646;2023-04-30T00:43:38;2.80;;;2.80;;
20844;SDS011;10583;49.084;8.646;2023-04-30T00:46:05;3.37;;;3.37;;
20844;SDS011;10583;49.084;8.646;2023-04-30T00:48:32;3.10;;;3.10;;
20844;SDS011;10583;49.084;8.646;2023-04-30T00:51:01;3.53;;;3.53;;
20844;SDS011;10583;49.084;8.646;2023-04-30T00:53:29;3.87;;;3.87;;
20844;SDS011;10583;49.084;8.646;2023-04-30T00:55:56;3.70;;;3.70;;
20844;SDS011;10583;49.084;8.646;2023-04-30T00:58:25;3.67;;;3.67;;
20844;SDS011;10583;49.084;8.646;2023-04-30T01:00:51;3.70;;;3.70;;
20844;SDS011;10583;49.084;8.646;2023-04-30T01:03:18;3.47;;;3.47;;
20844;SDS011;10583;49.084;8.646;2023-04-30T01:05:46;3.77;;;3.77;;
20844;SDS011;10583;49.084;8.646;2023-04-30T01:08:14;3.37;;;3.37;;
20844;SDS011;10583;49.084;8.646;2023-04-30T01:10:43;3.80;;;3.80;;
20844;SDS011;10583;49.084;8.646;2023-04-30T01:13:19;3.73;;;3.73;;
20844;SDS011;10583;49.084;8.646;2023-04-30T01:15:53;3.43;;;3.43;;
20844;SDS011;10583;49.084;8.646;2023-04-30T01:18:27;3.27;;;3.27;;
20844;SDS011;10583;49.084;8.646;2023-04-30T01:20:59;3.33;;;3.33;;
20844;SDS011;10583;49.084;8.646;2023-04-30T01:23:33;4.13;;;4.13;;
20844;SDS011;10583;49.084;8.646;2023-04-30T01:26:13;3.70;;;3.70;;
20844;SDS011;10583;49.084;8.646;2023-04-30T01:28:46;3.87;;;3.87;;
20844;SDS011;10583;49.084;8.646;2023-04-30T01:31:17;3.40;;;3.40;;
20844;SDS011;10583;49.084;8.646;2023-04-30T01:33:44;3.87;;;3.87;;
20844;SDS011;10583;49.084;8.646;2023-04-30T01:36:18;4.10;;;4.10;;
20844;SDS011;10583;49.084;8.646;2023-04-30T01:39:01;4.33;;;4.33;;
20844;SDS011;10583;49.084;8.646;2023-04-30T01:41:34;4.70;;;4.70;;
20844;SDS011;10583;49.084;8.646;2023-04-30T01:44:10;4.53;;;4.53;;
20844;SDS011;10583;49.084;8.646;2023-04-30T01:46:49;4.37;;;4.37;;
20844;SDS011;10583;49.084;8.646;2023-04-30T01:49:27;5.63;;;5.63;;
20844;SDS011;10583;49.084;8.646;2023-04-30T01:52:02;4.57;;;4.57;;
20844;SDS011;10583;49.084;8.646;2023-04-30T01:54:39;5.83;;;5.83;;
20844;SDS011;10583;49.084;8.646;2023-04-30T01:57:12;6.37;;;6.37;;
20844;SDS011;10583;49.084;8.646;2023-04-30T01:59:44;6.27;;;6.27;;
20844;SDS011;10583;49.084;8.646;2023-04-30T02:02:12;6.23;;;6.23;;
20844;SDS011;10583;49.084;8.646;2023-04-30T02:04:39;6.10;;;6.10;;
20844;SDS011;10583;49.084;8.646;2023-04-30T02:07:06;6.10;;;6.10;;
20844;SDS011;10583;49.084;8.646;2023-04-30T02:09:33;5.80;;;5.80;;
20844;SDS011;10583;49.084;8.646;2023-04-30T02:11:59;5.87;;;5.87;;
20844;SDS011;10583;49.084;8.646;2023-04-30T02:14:27;6.07;;;6.07;;
20844;SDS011;10583;49.084;8.646;2023-04-30T02:16:57;6.50;;;6.50;;
20844;SDS011;10583;49.084;8.646;2023-04-30T02:19:23;6.03;;;6.03;;
20844;SDS011;10583;49.084;8.646;2023-04-30T02:21:50;5.80;;;5.80;;
20844;SDS011;10583;49.084;8.646;2023-04-30T02:24:17;6.27;;;6.27;;
20844;SDS011;10583;49.084;8.646;2023-04-30T02:26:43;6.03;;;6.03;;
20844;SDS011;10583;49.084;8.646;2023-04-30T02:29:10;5.73;;;5.73;;
20844;SDS011;10583;49.084;8.646;2023-04-30T02:31:37;6.17;;;6.17;;
20844;SDS011;10583;49.084;8.646;2023-04-30T02:34:05;5.90;;;5.90;;
20844;SDS011;10583;49.084;8.646;2023-04-30T02:36:31;6.33;;;6.33;;
20844;SDS011;10583;49.084;8.646;2023-04-30T02:39:00;6.10;;;6.10;;
20844;SDS011;10583;49.084;8.646;2023-04-30T02:41:27;6.87;;;6.87;;
20844;SDS011;10583;49.084;8.646;2023-04-30T02:43:54;7.27;;;7.27;;
20844;SDS011;10583;49.084;8.646;2023-04-30T02:46:21;7.60;;;7.60;;
20844;SDS011;10583;49.084;8.646;2023-04-30T02:48:47;6.80;;;6.80;;
20844;SDS011;10583;49.084;8.646;2023-04-30T02:51:16;7.30;;;7.30;;
20844;SDS011;10583;49.084;8.646;2023-04-30T02:53:42;7.10;;;7.10;;
20844;SDS011;10583;49.084;8.646;2023-04-30T02:56:09;7.30;;;7.30;;
20844;SDS011;10583;49.084;8.646;2023-04-30T02:58:36;6.60;;;6.60;;
20844;SDS011;10583;49.084;8.646;2023-04-30T03:01:03;6.70;;;6.70;;
20844;SDS011;10583;49.084;8.646;2023-04-30T03:03:29;6.43;;;6.43;;
20844;SDS011;10583;49.084;8.646;2023-04-30T03:05:56;5.60;;;5.60;;
20844;SDS011;10583;49.084;8.646;2023-04-30T03:08:25;6.53;;;6.53;;
20844;SDS011;10583;49.084;8.646;2023-04-30T03:10:52;6.53;;;6.53;;
20844;SDS011;10583;49.084;8.646;2023-04-30T03:13:18;6.20;;;6.20;;
20844;SDS011;10583;49.084;8.646;2023-04-30T03:15:45;6.43;;;6.43;;
20844;SDS011;10583;49.084;8.646;2023-04-30T03:18:12;7.30;;;7.30;;
20844;SDS011;10583;49.084;8.646;2023-04-30T03:20:38;7.80;;;7.80;;
20844;SDS011;10583;49.084;8.646;2023-04-30T03:23:06;7.60;;;7.60;;
20844;SDS011;10583;49.084;8.646;2023-04-30T03:25:34;7.40;;;7.40;;
20844;SDS011;10583;49.084;8.646;2023-04-30T03:28:00;8.37;;;8.37;;
20844;SDS011;10583;49.084;8.646;2023-04-30T03:30:27;8.87;;;8.87;;
20844;SDS011;10583;49.084;8.646;2023-04-30T03:32:54;7.97;;;7.97;;
20844;SDS011;10583;49.084;8.646;2023-04-30T03:35:21;8.27;;;8.27;;
20844;SDS011;10583;49.084;8.646;2023-04-30T03:37:47;8.20;;;8.20;;
20844;SDS011;10583;49.084;8.646;2023-04-30T03:40:14;7.77;;;7.77;;
20844;SDS011;10583;49.084;8.646;2023-04-30T03:42:42;7.47;;;7.47;;
20844;SDS011;10583;49.084;8.646;2023-04-30T03:45:09;8.07;;;8.07;;
20844;SDS011;10583;49.084;8.646;2023-04-30T03:47:36;8.23;;;8.23;;
20844;SDS011;10583;49.084;8.646;2023-04-30T03:50:03;7.30;;;7.30;;
20844;SDS011;10583;49.084;8.646;2023-04-30T03:52:31;7.80;;;7.80;;
20844;SDS011;10583;49.084;8.646;2023-04-30T03:54:58;7.67;;;7.67;;
20844;SDS011;10583;49.084;8.646;2023-04-30T03:57:24;7.93;;;7.93;;
20844;SDS011;10583;49.084;8.646;2023-04-30T03:59:53;8.47;;;8.47;;
20844;SDS011;10583;49.084;8.646;2023-04-30T04:02:20;7.83;;;7.83;;
20844;SDS011;10583;49.084;8.646;2023-04-30T04:04:47;7.67;;;7.67;;
20844;SDS011;10583;49.084;8.646;2023-04-30T04:07:15;8.87;;;8.87;;
20844;SDS011;10583;49.084;8.646;2023-04-30T04:09:42;8.00;;;8.00;;
20844;SDS011;10583;49.084;8.646;2023-04-30T04:12:08;8.20;;;8.20;;
20844;SDS011;10583;49.084;8.646;2023-04-30T04:14:35;8.53;;;8.53;;
20844;SDS011;10583;49.084;8.646;2023-04-30T04:17:03;8.30;;;8.30;;
20844;SDS011;10583;49.084;8.646;2023-04-30T04:19:30;8.70;;;8.70;;
20844;SDS011;10583;49.084;8.646;2023-04-30T04:21:57;8.70;;;8.70;;
20844;SDS011;10583;49.084;8.646;2023-04-30T04:24:23;8.73;;;8.73;;
20844;SDS011;10583;49.084;8.646;2023-04-30T04:26:50;7.73;;;7.73;;
20844;SDS011;10583;49.084;8.646;2023-04-30T04:29:17;8.67;;;8.67;;
20844;SDS011;10583;49.084;8.646;2023-04-30T04:31:44;9.00;;;9.00;;
20844;SDS011;10583;49.084;8.646;2023-04-30T04:34:14;8.43;;;8.43;;
20844;SDS011;10583;49.084;8.646;2023-04-30T04:36:41;9.27;;;9.27;;
20844;SDS011;10583;49.084;8.646;2023-04-30T04:39:07;8.80;;;8.80;;
20844;SDS011;10583;49.084;8.646;2023-04-30T04:41:35;8.73;;;8.73;;
20844;SDS011;10583;49.084;8.646;2023-04-30T04:44:02;8.80;;;8.80;;
20844;SDS011;10583;49.084;8.646;2023-04-30T04:46:30;8.27;;;8.27;;
20844;SDS011;10583;49.084;8.646;2023-04-30T04:48:57;7.93;;;7.93;;
20844;SDS011;10583;49.084;8.646;2023-04-30T04:51:25;8.60;;;8.60;;
20844;SDS011;10583;49.084;8.646;2023-04-30T04:53:52;8.57;;;8.57;;
20844;SDS011;10583;49.084;8.646;2023-04-30T04:56:18;8.97;;;8.97;;
20844;SDS011;10583;49.084;8.646;2023-04-30T04:58:45;8.97;;;8.97;;
20844;SDS011;10583;49.084;8.646;2023-04-30T05:01:12;8.93;;;8.93;;
20844;SDS011;10583;49.084;8.646;2023-04-30T05:03:39;8.50;;;8.50;;
20844;SDS011;10583;49.084;8.646;2023-04-30T05:06:07;9.70;;;9.70;;
20844;SDS011;10583;49.084;8.646;2023-04-30T05:08:35;8.70;;;8.70;;
20844;SDS011;10583;49.084;8.646;2023-04-30T05:11:02;9.10;;;9.10;;
20844;SDS011;10583;49.084;8.646;2023-04-30T05:13:29;9.13;;;9.13;;
20844;SDS011;10583;49.084;8.646;2023-04-30T05:15:55;9.70;;;9.70;;
20844;SDS011;10583;49.084;8.646;2023-04-30T05:18:22;8.90;;;8.90;;
20844;SDS011;10583;49.084;8.646;2023-04-30T05:20:49;9.60;;;9.60;;
20844;SDS011;10583;49.084;8.646;2023-04-30T05:23:16;9.37;;;9.37;;
20844;SDS011;10583;49.084;8.646;2023-04-30T05:25:44;9.43;;;9.43;;
20844;SDS011;10583;49.084;8.646;2023-04-30T05:28:10;9.40;;;9.40;;
20844;SDS011;10583;49.084;8.646;2023-04-30T05:30:37;9.00;;;9.00;;
20844;SDS011;10583;49.084;8.646;2023-04-30T05:33:04;8.93;;;8.93;;
20844;SDS011;10583;49.084;8.646;2023-04-30T05:35:31;9.43;;;9.43;;
20844;SDS011;10583;49.084;8.646;2023-04-30T05:37:59;9.27;;;9.27;;
20844;SDS011;10583;49.084;8.646;2023-04-30T05:40:26;9.80;;;9.80;;
20844;SDS011;10583;49.084;8.646;2023-04-30T05:42:54;9.83;;;9.83;;
20844;SDS011;10583;49.084;8.646;2023-04-30T05:45:21;9.97;;;9.97;;
20844;SDS011;10583;49.084;8.646;2023-04-30T05:47:48;9.30;;;9.30;;
20844;SDS011;10583;49.084;8.646;2023-04-30T05:50:14;9.03;;;9.03;;
20844;SDS011;10583;49.084;8.646;2023-04-30T05:52:41;9.57;;;9.57;;
20844;SDS011;10583;49.084;8.646;2023-04-30T05:55:08;9.17;;;9.17;;
20844;SDS011;10583;49.084;8.646;2023-04-30T05:57:35;8.90;;;8.90;;
20844;SDS011;10583;49.084;8.646;2023-04-30T06:00:05;8.67;;;8.67;;
20844;SDS011;10583;49.084;8.646;2023-04-30T06:02:32;9.20;;;9.20;;
20844;SDS011;10583;49.084;8.646;2023-04-30T06:04:59;9.17;;;9.17;;
20844;SDS011;10583;49.084;8.646;2023-04-30T06:07:27;9.20;;;9.20;;
20844;SDS011;10583;49.084;8.646;2023-04-30T06:09:54;8.90;;;8.90;;
20844;SDS011;10583;49.084;8.646;2023-04-30T06:12:21;9.00;;;9.00;;
20844;SDS011;10583;49.084;8.646;2023-04-30T06:14:48;9.03;;;9.03;;
20844;SDS011;10583;49.084;8.646;2023-04-30T06:17:16;9.43;;;9.43;;
20844;SDS011;10583;49.084;8.646;2023-04-30T06:19:43;8.80;;;8.80;;
20844;SDS011;10583;49.084;8.646;2023-04-30T06:22:09;8.60;;;8.60;;
20844;SDS011;10583;49.084;8.646;2023-04-30T06:24:36;9.57;;;9.57;;
20844;SDS011;10583;49.084;8.646;2023-04-30T06:27:03;8.57;;;8.57;;
20844;SDS011;10583;49.084;8.646;2023-04-30T06:29:30;9.67;;;9.67;;
20844;SDS011;10583;49.084;8.646;2023-04-30T06:31:56;8.87;;;8.87;;
20844;SDS011;10583;49.084;8.646;2023-04-30T06:34:24;8.37;;;8.30;;
20844;SDS011;10583;49.084;8.646;2023-04-30T06:36:51;8.67;;;8.67;;
20844;SDS011;10583;49.084;8.646;2023-04-30T06:39:18;8.67;;;8.67;;
20844;SDS011;10583;49.084;8.646;2023-04-30T06:41:45;8.53;;;8.53;;
20844;SDS011;10583;49.084;8.646;2023-04-30T06:44:12;8.33;;;8.33;;
20844;SDS011;10583;49.084;8.646;2023-04-30T06:46:39;8.10;;;8.10;;
20844;SDS011;10583;49.084;8.646;2023-04-30T06:49:06;8.90;;;8.90;;
20844;SDS011;10583;49.084;8.646;2023-04-30T06:51:34;9.40;;;9.40;;
20844;SDS011;10583;49.084;8.646;2023-04-30T06:54:00;9.40;;;9.40;;
20844;SDS011;10583;49.084;8.646;2023-04-30T06:56:27;8.63;;;8.63;;
20844;SDS011;10583;49.084;8.646;2023-04-30T06:58:54;10.20;;;10.20;;
20844;SDS011;10583;49.084;8.646;2023-04-30T07:01:20;8.57;;;8.57;;
20844;SDS011;10583;49.084;8.646;2023-04-30T07:03:47;8.93;;;8.93;;
20844;SDS011;10583;49.084;8.646;2023-04-30T07:06:15;9.20;;;9.20;;
20844;SDS011;10583;49.084;8.646;2023-04-30T07:08:43;8.50;;;8.50;;
20844;SDS011;10583;49.084;8.646;2023-04-30T07:11:09;8.20;;;8.20;;
20844;SDS011;10583;49.084;8.646;2023-04-30T07:13:36;8.93;;;8.93;;
20844;SDS011;10583;49.084;8.646;2023-04-30T07:16:03;9.03;;;9.03;;
20844;SDS011;10583;49.084;8.646;2023-04-30T07:18:30;8.23;;;8.23;;
20844;SDS011;10583;49.084;8.646;2023-04-30T07:20:57;9.13;;;9.13;;
20844;SDS011;10583;49.084;8.646;2023-04-30T07:23:24;8.17;;;8.17;;
20844;SDS011;10583;49.084;8.646;2023-04-30T07:25:52;8.47;;;8.47;;
20844;SDS011;10583;49.084;8.646;2023-04-30T07:28:18;7.70;;;7.70;;
20844;SDS011;10583;49.084;8.646;2023-04-30T07:30:45;9.13;;;9.07;;
20844;SDS011;10583;49.084;8.646;2023-04-30T07:33:12;8.70;;;8.70;;
20844;SDS011;10583;49.084;8.646;2023-04-30T07:35:39;8.93;;;8.93;;
20844;SDS011;10583;49.084;8.646;2023-04-30T07:38:06;8.03;;;8.03;;
20844;SDS011;10583;49.084;8.646;2023-04-30T07:40:32;8.40;;;8.40;;
20844;SDS011;10583;49.084;8.646;2023-04-30T07:43:01;7.60;;;7.60;;
20844;SDS011;10583;49.084;8.646;2023-04-30T07:45:28;8.73;;;8.73;;
20844;SDS011;10583;49.084;8.646;2023-04-30T07:47:55;8.33;;;8.33;;
20844;SDS011;10583;49.084;8.646;2023-04-30T07:50:22;8.20;;;8.20;;
20844;SDS011;10583;49.084;8.646;2023-04-30T07:52:49;8.30;;;8.30;;
20844;SDS011;10583;49.084;8.646;2023-04-30T07:55:15;7.87;;;7.87;;
20844;SDS011;10583;49.084;8.646;2023-04-30T07:57:42;7.77;;;7.77;;
20844;SDS011;10583;49.084;8.646;2023-04-30T08:00:10;7.47;;;7.47;;
20844;SDS011;10583;49.084;8.646;2023-04-30T08:02:39;7.50;;;7.50;;
20844;SDS011;10583;49.084;8.646;2023-04-30T08:05:08;7.60;;;7.60;;
20844;SDS011;10583;49.084;8.646;2023-04-30T08:07:35;7.57;;;7.57;;
20844;SDS011;10583;49.084;8.646;2023-04-30T08:10:02;7.30;;;7.30;;
20844;SDS011;10583;49.084;8.646;2023-04-30T08:12:28;7.50;;;7.50;;
20844;SDS011;10583;49.084;8.646;2023-04-30T08:14:58;7.90;;;7.90;;
20844;SDS011;10583;49.084;8.646;2023-04-30T08:17:27;7.73;;;7.73;;
20844;SDS011;10583;49.084;8.646;2023-04-30T08:19:57;7.53;;;7.53;;
20844;SDS011;10583;49.084;8.646;2023-04-30T08:22:23;7.70;;;7.70;;
20844;SDS011;10583;49.084;8.646;2023-04-30T08:24:50;6.77;;;6.77;;
20844;SDS011;10583;49.084;8.646;2023-04-30T08:27:19;6.80;;;6.80;;
20844;SDS011;10583;49.084;8.646;2023-04-30T08:29:45;6.87;;;6.87;;
20844;SDS011;10583;49.084;8.646;2023-04-30T08:32:12;6.80;;;6.80;;
20844;SDS011;10583;49.084;8.646;2023-04-30T08:34:41;7.27;;;7.27;;
20844;SDS011;10583;49.084;8.646;2023-04-30T08:37:07;7.47;;;7.47;;
20844;SDS011;10583;49.084;8.646;2023-04-30T08:39:34;7.40;;;7.40;;
20844;SDS011;10583;49.084;8.646;2023-04-30T08:42:01;6.30;;;6.30;;
20844;SDS011;10583;49.084;8.646;2023-04-30T08:44:33;5.50;;;5.50;;
20844;SDS011;10583;49.084;8.646;2023-04-30T08:47:03;6.13;;;6.13;;
20844;SDS011;10583;49.084;8.646;2023-04-30T08:49:32;6.83;;;6.83;;
20844;SDS011;10583;49.084;8.646;2023-04-30T08:52:02;6.10;;;6.10;;
20844;SDS011;10583;49.084;8.646;2023-04-30T08:54:29;5.97;;;5.97;;
20844;SDS011;10583;49.084;8.646;2023-04-30T08:56:56;5.43;;;5.43;;
20844;SDS011;10583;49.084;8.646;2023-04-30T08:59:23;5.87;;;5.87;;
20844;SDS011;10583;49.084;8.646;2023-04-30T09:01:50;6.23;;;6.23;;
20844;SDS011;10583;49.084;8.646;2023-04-30T09:04:17;5.10;;;5.10;;
20844;SDS011;10583;49.084;8.646;2023-04-30T09:06:44;5.30;;;5.30;;
20844;SDS011;10583;49.084;8.646;2023-04-30T09:09:12;5.20;;;5.20;;
20844;SDS011;10583;49.084;8.646;2023-04-30T09:11:40;5.03;;;5.03;;
20844;SDS011;10583;49.084;8.646;2023-04-30T09:14:07;5.23;;;5.23;;
20844;SDS011;10583;49.084;8.646;2023-04-30T09:16:44;4.60;;;4.60;;
20844;SDS011;10583;49.084;8.646;2023-04-30T09:19:22;4.77;;;4.77;;
20844;SDS011;10583;49.084;8.646;2023-04-30T09:21:50;4.63;;;4.63;;
20844;SDS011;10583;49.084;8.646;2023-04-30T09:24:18;5.30;;;5.30;;
20844;SDS011;10583;49.084;8.646;2023-04-30T09:26:45;4.33;;;4.33;;
20844;SDS011;10583;49.084;8.646;2023-04-30T09:29:12;3.80;;;3.80;;
20844;SDS011;10583;49.084;8.646;2023-04-30T09:31:40;4.30;;;4.30;;
20844;SDS011;10583;49.084;8.646;2023-04-30T09:34:08;4.23;;;4.23;;
20844;SDS011;10583;49.084;8.646;2023-04-30T09:36:35;4.03;;;4.03;;
20844;SDS011;10583;49.084;8.646;2023-04-30T09:39:05;4.50;;;4.50;;
20844;SDS011;10583;49.084;8.646;2023-04-30T09:41:34;3.87;;;3.87;;
20844;SDS011;10583;49.084;8.646;2023-04-30T09:44:01;3.60;;;3.60;;
20844;SDS011;10583;49.084;8.646;2023-04-30T09:46:31;3.53;;;3.53;;
20844;SDS011;10583;49.084;8.646;2023-04-30T09:49:03;2.93;;;2.93;;
20844;SDS011;10583;49.084;8.646;2023-04-30T09:51:31;3.13;;;3.13;;
20844;SDS011;10583;49.084;8.646;2023-04-30T09:53:58;3.07;;;3.07;;
20844;SDS011;10583;49.084;8.646;2023-04-30T09:56:28;2.80;;;2.80;;
20844;SDS011;10583;49.084;8.646;2023-04-30T09:59:00;2.97;;;2.97;;
20844;SDS011;10583;49.084;8.646;2023-04-30T10:01:29;3.10;;;3.10;;
20844;SDS011;10583;49.084;8.646;2023-04-30T10:03:57;3.50;;;3.50;;
20844;SDS011;10583;49.084;8.646;2023-04-30T10:06:24;3.53;;;3.53;;
20844;SDS011;10583;49.084;8.646;2023-04-30T10:08:55;3.90;;;3.90;;
20844;SDS011;10583;49.084;8.646;2023-04-30T10:11:25;3.53;;;3.53;;
20844;SDS011;10583;49.084;8.646;2023-04-30T10:13:54;3.40;;;3.40;;
20844;SDS011;10583;49.084;8.646;2023-04-30T10:16:29;3.03;;;3.03;;
20844;SDS011;10583;49.084;8.646;2023-04-30T10:19:05;3.13;;;3.13;;
20844;SDS011;10583;49.084;8.646;2023-04-30T10:21:35;2.93;;;2.93;;
20844;SDS011;10583;49.084;8.646;2023-04-30T10:24:07;2.83;;;2.83;;
20844;SDS011;10583;49.084;8.646;2023-04-30T10:26:35;2.50;;;2.50;;
20844;SDS011;10583;49.084;8.646;2023-04-30T10:29:03;2.77;;;2.77;;
20844;SDS011;10583;49.084;8.646;2023-04-30T10:31:33;3.90;;;3.90;;
20844;SDS011;10583;49.084;8.646;2023-04-30T10:34:03;3.33;;;3.33;;
20844;SDS011;10583;49.084;8.646;2023-04-30T10:36:41;3.50;;;3.50;;
20844;SDS011;10583;49.084;8.646;2023-04-30T10:39:12;2.67;;;2.67;;
20844;SDS011;10583;49.084;8.646;2023-04-30T10:41:41;2.43;;;2.43;;
20844;SDS011;10583;49.084;8.646;2023-04-30T10:44:11;2.70;;;2.70;;
20844;SDS011;10583;49.084;8.646;2023-04-30T10:46:39;2.70;;;2.70;;
20844;SDS011;10583;49.084;8.646;2023-04-30T10:49:06;2.00;;;2.00;;
20844;SDS011;10583;49.084;8.646;2023-04-30T10:51:46;2.07;;;2.07;;
20844;SDS011;10583;49.084;8.646;2023-04-30T10:54:15;2.67;;;2.67;;
20844;SDS011;10583;49.084;8.646;2023-04-30T10:56:49;2.30;;;2.30;;
20844;SDS011;10583;49.084;8.646;2023-04-30T10:59:17;2.47;;;2.47;;
20844;SDS011;10583;49.084;8.646;2023-04-30T11:01:55;2.40;;;2.40;;
20844;SDS011;10583;49.084;8.646;2023-04-30T11:04:23;2.33;;;2.33;;
20844;SDS011;10583;49.084;8.646;2023-04-30T11:06:54;3.40;;;3.40;;
20844;SDS011;10583;49.084;8.646;2023-04-30T11:09:34;3.30;;;3.30;;
20844;SDS011;10583;49.084;8.646;2023-04-30T11:12:03;3.23;;;3.23;;
20844;SDS011;10583;49.084;8.646;2023-04-30T11:14:35;2.40;;;2.40;;
20844;SDS011;10583;49.084;8.646;2023-04-30T11:17:07;2.50;;;2.50;;
20844;SDS011;10583;49.084;8.646;2023-04-30T11:19:35;2.40;;;2.40;;
20844;SDS011;10583;49.084;8.646;2023-04-30T11:22:20;2.33;;;2.33;;
20844;SDS011;10583;49.084;8.646;2023-04-30T11:24:49;2.00;;;2.00;;
20844;SDS011;10583;49.084;8.646;2023-04-30T11:27:20;2.20;;;2.20;;
20844;SDS011;10583;49.084;8.646;2023-04-30T11:29:48;2.33;;;2.33;;
20844;SDS011;10583;49.084;8.646;2023-04-30T11:32:18;2.43;;;2.43;;
20844;SDS011;10583;49.084;8.646;2023-04-30T11:34:45;2.23;;;2.23;;
20844;SDS011;10583;49.084;8.646;2023-04-30T11:37:14;2.40;;;2.40;;
20844;SDS011;10583;49.084;8.646;2023-04-30T11:39:44;2.30;;;2.30;;
20844;SDS011;10583;49.084;8.646;2023-04-30T11:42:14;2.83;;;2.83;;
20844;SDS011;10583;49.084;8.646;2023-04-30T11:44:42;2.30;;;2.30;;
20844;SDS011;10583;49.084;8.646;2023-04-30T11:47:09;2.40;;;2.40;;
20844;SDS011;10583;49.084;8.646;2023-04-30T11:49:37;3.10;;;3.10;;
20844;SDS011;10583;49.084;8.646;2023-04-30T11:52:04;2.73;;;2.73;;
20844;SDS011;10583;49.084;8.646;2023-04-30T11:54:35;3.00;;;3.00;;
20844;SDS011;10583;49.084;8.646;2023-04-30T11:57:04;3.40;;;3.40;;
20844;SDS011;10583;49.084;8.646;2023-04-30T11:59:31;3.53;;;3.53;;
20844;SDS011;10583;49.084;8.646;2023-04-30T12:02:05;2.90;;;2.90;;
20844;SDS011;10583;49.084;8.646;2023-04-30T12:04:32;3.00;;;3.00;;
20844;SDS011;10583;49.084;8.646;2023-04-30T12:07:00;2.90;;;2.90;;
20844;SDS011;10583;49.084;8.646;2023-04-30T12:09:27;2.70;;;2.70;;
20844;SDS011;10583;49.084;8.646;2023-04-30T12:11:54;2.90;;;2.90;;
20844;SDS011;10583;49.084;8.646;2023-04-30T12:14:23;2.50;;;2.50;;
20844;SDS011;10583;49.084;8.646;2023-04-30T12:16:51;2.90;;;2.90;;
20844;SDS011;10583;49.084;8.646;2023-04-30T12:19:18;2.80;;;2.80;;
20844;SDS011;10583;49.084;8.646;2023-04-30T12:21:46;2.97;;;2.97;;
20844;SDS011;10583;49.084;8.646;2023-04-30T12:24:18;3.00;;;3.00;;
20844;SDS011;10583;49.084;8.646;2023-04-30T12:26:45;2.87;;;2.87;;
20844;SDS011;10583;49.084;8.646;2023-04-30T12:29:13;2.87;;;2.87;;
20844;SDS011;10583;49.084;8.646;2023-04-30T12:31:41;2.77;;;2.77;;
20844;SDS011;10583;49.084;8.646;2023-04-30T12:34:08;2.83;;;2.83;;
20844;SDS011;10583;49.084;8.646;2023-04-30T12:36:37;2.53;;;2.53;;
20844;SDS011;10583;49.084;8.646;2023-04-30T12:39:07;2.60;;;2.60;;
20844;SDS011;10583;49.084;8.646;2023-04-30T12:41:36;2.50;;;2.50;;
20844;SDS011;10583;49.084;8.646;2023-04-30T12:44:18;2.50;;;2.50;;
20844;SDS011;10583;49.084;8.646;2023-04-30T12:46:46;2.53;;;2.53;;
20844;SDS011;10583;49.084;8.646;2023-04-30T12:49:23;2.60;;;2.60;;
20844;SDS011;10583;49.084;8.646;2023-04-30T12:51:51;2.70;;;2.70;;
20844;SDS011;10583;49.084;8.646;2023-04-30T12:54:24;3.07;;;3.07;;
20844;SDS011;10583;49.084;8.646;2023-04-30T12:57:01;2.60;;;2.60;;
20844;SDS011;10583;49.084;8.646;2023-04-30T12:59:29;2.50;;;2.50;;
20844;SDS011;10583;49.084;8.646;2023-04-30T13:02:04;2.70;;;2.70;;
20844;SDS011;10583;49.084;8.646;2023-04-30T13:04:35;2.33;;;2.33;;
20844;SDS011;10583;49.084;8.646;2023-04-30T13:07:01;2.70;;;2.70;;
20844;SDS011;10583;49.084;8.646;2023-04-30T13:09:29;2.60;;;2.60;;
20844;SDS011;10583;49.084;8.646;2023-04-30T13:11:56;2.40;;;2.40;;
20844;SDS011;10583;49.084;8.646;2023-04-30T13:14:31;2.30;;;2.30;;
20844;SDS011;10583;49.084;8.646;2023-04-30T13:16:58;2.50;;;2.50;;
20844;SDS011;10583;49.084;8.646;2023-04-30T13:19:26;2.50;;;2.50;;
20844;SDS011;10583;49.084;8.646;2023-04-30T13:21:54;2.60;;;2.60;;
20844;SDS011;10583;49.084;8.646;2023-04-30T13:24:21;2.80;;;2.80;;
20844;SDS011;10583;49.084;8.646;2023-04-30T13:26:48;2.70;;;2.70;;
20844;SDS011;10583;49.084;8.646;2023-04-30T13:29:15;2.63;;;2.63;;
20844;SDS011;10583;49.084;8.646;2023-04-30T13:31:43;2.83;;;2.83;;
20844;SDS011;10583;49.084;8.646;2023-04-30T13:34:09;3.33;;;3.33;;
20844;SDS011;10583;49.084;8.646;2023-04-30T13:36:36;2.83;;;2.83;;
20844;SDS011;10583;49.084;8.646;2023-04-30T13:39:03;3.17;;;3.17;;
20844;SDS011;10583;49.084;8.646;2023-04-30T13:41:30;2.80;;;2.80;;
20844;SDS011;10583;49.084;8.646;2023-04-30T13:43:57;2.20;;;2.20;;
20844;SDS011;10583;49.084;8.646;2023-04-30T13:46:25;2.83;;;2.83;;
20844;SDS011;10583;49.084;8.646;2023-04-30T13:48:53;2.63;;;2.63;;
20844;SDS011;10583;49.084;8.646;2023-04-30T13:51:20;2.40;;;2.40;;
20844;SDS011;10583;49.084;8.646;2023-04-30T13:53:46;2.30;;;2.30;;
20844;SDS011;10583;49.084;8.646;2023-04-30T13:56:13;2.77;;;2.77;;
20844;SDS011;10583;49.084;8.646;2023-04-30T13:58:40;2.67;;;2.67;;
20844;SDS011;10583;49.084;8.646;2023-04-30T14:01:07;2.70;;;2.70;;
20844;SDS011;10583;49.084;8.646;2023-04-30T14:03:34;1.90;;;1.90;;
20844;SDS011;10583;49.084;8.646;2023-04-30T14:06:02;2.30;;;2.30;;
20844;SDS011;10583;49.084;8.646;2023-04-30T14:08:29;2.70;;;2.70;;
20844;SDS011;10583;49.084;8.646;2023-04-30T14:10:57;2.77;;;2.77;;
20844;SDS011;10583;49.084;8.646;2023-04-30T14:13:24;2.10;;;2.10;;
20844;SDS011;10583;49.084;8.646;2023-04-30T14:15:51;2.20;;;2.20;;
20844;SDS011;10583;49.084;8.646;2023-04-30T14:18:18;2.50;;;2.50;;
20844;SDS011;10583;49.084;8.646;2023-04-30T14:20:46;2.20;;;2.20;;
20844;SDS011;10583;49.084;8.646;2023-04-30T14:23:14;2.40;;;2.40;;
20844;SDS011;10583;49.084;8.646;2023-04-30T14:25:41;3.00;;;3.00;;
20844;SDS011;10583;49.084;8.646;2023-04-30T14:28:08;2.50;;;2.50;;
20844;SDS011;10583;49.084;8.646;2023-04-30T14:30:35;2.60;;;2.60;;
20844;SDS011;10583;49.084;8.646;2023-04-30T14:33:02;2.70;;;2.70;;
20844;SDS011;10583;49.084;8.646;2023-04-30T14:35:29;2.33;;;2.33;;
20844;SDS011;10583;49.084;8.646;2023-04-30T14:37:56;2.50;;;2.50;;
20844;SDS011;10583;49.084;8.646;2023-04-30T14:40:24;2.30;;;2.30;;
20844;SDS011;10583;49.084;8.646;2023-04-30T14:42:50;2.60;;;2.60;;
20844;SDS011;10583;49.084;8.646;2023-04-30T14:45:17;3.43;;;3.43;;
20844;SDS011;10583;49.084;8.646;2023-04-30T14:47:44;2.30;;;2.30;;
20844;SDS011;10583;49.084;8.646;2023-04-30T14:50:11;3.00;;;3.00;;
20844;SDS011;10583;49.084;8.646;2023-04-30T14:52:38;2.97;;;2.97;;
20844;SDS011;10583;49.084;8.646;2023-04-30T14:55:06;2.40;;;2.40;;